ADDS METAR Data INFO
IDs: Format: Raw Decoded Include TAF

Data at: 1749 UTC 21 Oct 2017

KDFI 211653Z AUTO 19005KT 10SM CLR 21/12 A3021 RMK AO2 SLP228 T02110117
KDFI 211553Z AUTO 19007KT 10SM CLR 19/12 A3021 RMK AO2 SLP230 T01890117
KDFI 211453Z AUTO 18006KT 10SM CLR 17/12 A3022 RMK AO2 SLP232 T01720117 51004
KDFI 211353Z AUTO 17008KT 8SM CLR 15/11 A3022 RMK AO2 SLP231 T01500106
KDFI 211253Z AUTO 17003KT 6SM BR CLR 12/10 A3022 RMK AO2 SLP231 T01220100
KDFI 211153Z AUTO 00000KT 7SM CLR 11/09 A3021 RMK AO2 SLP227 T01110094 10117 20094 51011
KDFI 211053Z AUTO 14004KT 6SM BR CLR 10/08 A3020 RMK AO2 SLP224 T01000083
KDFI 210953Z AUTO 12003KT 7SM CLR 11/09 A3019 RMK AO2 SLP222 T01060089
KDFI 210853Z AUTO 15003KT 7SM CLR 09/08 A3017 RMK AO2 SLP216 T00940078 53003
KDFI 210753Z AUTO 00000KT 7SM CLR 11/09 A3017 RMK AO2 SLP216 T01060089
KDFI 210653Z AUTO 00000KT 9SM CLR 11/08 A3016 RMK AO2 SLP212 T01060083
KDFI 210553Z AUTO 00000KT 10SM CLR 11/08 A3017 RMK AO2 SLP214 T01110083 10194 20111 51003
KDFI 210453Z AUTO 17003KT 10SM CLR 13/09 A3016 RMK AO2 SLP213 T01280094 402440039
KDFI 210353Z AUTO 21006KT 10SM CLR 16/10 A3016 RMK AO2 SLP212 T01560100
KDFI 210253Z AUTO 19005KT 10SM CLR 17/10 A3016 RMK AO2 SLP211 T01670100 52001
KDFI 210153Z AUTO 18006KT 10SM CLR 18/10 A3015 RMK AO2 SLP211 T01780100
KDFI 210053Z AUTO 17005KT 10SM CLR 19/10 A3016 RMK AO2 SLP213 T01890100
KDFI 202353Z AUTO 15004KT 10SM CLR 19/10 A3015 RMK AO2 SLP212 T01940100 10244 20194 56003
KDFI 202253Z AUTO 17004KT 10SM CLR 21/11 A3016 RMK AO2 SLP212 T02110106
KDFI 202153Z AUTO 17005KT 10SM CLR 23/11 A3015 RMK AO2 SLP211 T02330106
KDFI 202053Z AUTO 18007KT 10SM CLR 24/10 A3016 RMK AO2 SLP214 T02390100 56020
KDFI 201953Z AUTO 19009KT 10SM CLR 24/09 A3017 RMK AO2 SLP218 T02440089
KDFI 201853Z AUTO 18008G15KT 10SM CLR 24/10 A3019 RMK AO2 SLP225 T02390100
KDFI 201753Z AUTO 18006KT 10SM CLR 23/11 A3022 RMK AO2 SLP234 T02280106 10228 20044 58022
KDFI 201653Z AUTO VRB04KT 10SM CLR 22/10 A3025 RMK AO2 SLP245 T02170100
KDFI 201553Z AUTO 19006KT 10SM CLR 19/08 A3027 RMK AO2 SLP253 T01940078
KDFI 201453Z AUTO 18007KT 10SM CLR 17/04 A3029 RMK AO2 SLP257 T01670044 50004
KDFI 201353Z AUTO 17005KT 10SM CLR 12/07 A3029 RMK AO2 SLP259 T01220067
KDFI 201253Z AUTO 00000KT 10SM CLR 07/05 A3029 RMK AO2 SLP259 T00670050
KDFI 201153Z AUTO 00000KT 10SM CLR 05/03 A3027 RMK AO2 SLP254 T00500028 10067 20039 53013
KDFI 201053Z AUTO 00000KT 10SM CLR 04/03 A3026 RMK AO2 SLP248 T00440033
KDFI 200953Z AUTO 00000KT 10SM CLR 04/03 A3025 RMK AO2 SLP244 T00440028
KDFI 200853Z AUTO 00000KT 10SM CLR 05/03 A3023 RMK AO2 SLP239 T00500028 51006
KDFI 200753Z AUTO 22004KT 10SM CLR 06/03 A3023 RMK AO2 SLP237 T00560033
KDFI 200653Z AUTO 00000KT 10SM CLR 06/03 A3022 RMK AO2 SLP235 T00560033
KDFI 200553Z AUTO 00000KT 10SM CLR 07/04 A3021 RMK AO2 SLP232 T00670039 10144 20061 52004